Карточка аэропорта URKA

Внимание!
Информация на этой странице в стадии наполнения.
Если вы не увидели какой-то информации, или заметили неточность - пожалуйста сообщите нам!
Спасибо!
Команда RU-STAFF
Название аэропортаВитязево
Название аэропорта (англ.)Vityazevo
Превышение176 ft. (53.6 m.)
Координаты45°0.13200000000012', 37°20.832'
Высота перехода4000 ft
Эшелон переходаFL50 (QNH >= 1013); FL60 (QNH 977-1012); FL70 (QNH < 977)
Коды ответчика1040-1047
Зона ОрВДРостов-на-Дону РПИ (URRV)
Данные METARURKA 271230Z 06002MPS 030V090 9999 BKN038CB 19/18 Q1016 R03/290160 TEMPO 1000 TSRA SCT005 BKN016CB RMK QFE758/1011
Проноз погоды (TAF)URKA 271056Z 2712/2812 35003G08MPS 9999 BKN030CB TEMPO 2712/2718 03003G08MPS 2000 TSRA BKN016CB BECMG 2718/2719 05003G08MPS BECMG 2803/2805 09005G10MPS TEMPO 2809/2812 14006G12MPS -TSRA BKN020CB
NOTAMshow/hide NOTAM
AWOS   TABLE

Информация о ВПП

ВПП Длина ВПП (м.) Покрытие Курс ВПП Частота ILS
222500Цементобетон216 
042500Цементобетон36109.1

Диспетчерские позиции

Позывной Наименование органа УВД Частота
URKA_TWRАнапа-Старт119.8
URKA_GNDАнапа-Руление119.0
URKAFM1119,0
URKA_R_APPАнапа-Круг118.7



Спутниковое изображение